sensor_id;sensor_type;location;lat;lon;timestamp;P1;durP1;ratioP1;P2;durP2;ratioP2
76063;SDS011;64762;52.006;8.424;2024-03-07T00:01:04;22.83;;;9.87;;
76063;SDS011;64762;52.006;8.424;2024-03-07T00:03:29;15.70;;;7.87;;
76063;SDS011;64762;52.006;8.424;2024-03-07T00:05:55;20.27;;;8.90;;
76063;SDS011;64762;52.006;8.424;2024-03-07T00:08:20;22.20;;;9.33;;
76063;SDS011;64762;52.006;8.424;2024-03-07T00:10:46;20.98;;;9.88;;
76063;SDS011;64762;52.006;8.424;2024-03-07T00:13:11;23.23;;;9.73;;
76063;SDS011;64762;52.006;8.424;2024-03-07T00:15:38;20.80;;;9.15;;
76063;SDS011;64762;52.006;8.424;2024-03-07T00:18:05;19.23;;;9.10;;
76063;SDS011;64762;52.006;8.424;2024-03-07T00:20:30;23.33;;;9.13;;
76063;SDS011;64762;52.006;8.424;2024-03-07T00:22:56;20.27;;;9.40;;
76063;SDS011;64762;52.006;8.424;2024-03-07T00:25:21;21.70;;;9.93;;
76063;SDS011;64762;52.006;8.424;2024-03-07T00:27:47;24.58;;;10.68;;
76063;SDS011;64762;52.006;8.424;2024-03-07T00:30:12;18.80;;;8.27;;
76063;SDS011;64762;52.006;8.424;2024-03-07T00:32:43;24.88;;;10.32;;
76063;SDS011;64762;52.006;8.424;2024-03-07T00:35:09;23.13;;;9.98;;
76063;SDS011;64762;52.006;8.424;2024-03-07T00:37:35;23.10;;;9.73;;
76063;SDS011;64762;52.006;8.424;2024-03-07T00:40:01;20.30;;;9.25;;
76063;SDS011;64762;52.006;8.424;2024-03-07T00:42:26;22.80;;;9.13;;
76063;SDS011;64762;52.006;8.424;2024-03-07T00:44:55;22.73;;;8.85;;
76063;SDS011;64762;52.006;8.424;2024-03-07T00:47:23;22.75;;;8.90;;
76063;SDS011;64762;52.006;8.424;2024-03-07T00:49:48;22.33;;;9.60;;
76063;SDS011;64762;52.006;8.424;2024-03-07T00:52:14;22.37;;;8.20;;
76063;SDS011;64762;52.006;8.424;2024-03-07T00:54:40;19.67;;;9.35;;
76063;SDS011;64762;52.006;8.424;2024-03-07T00:57:05;20.00;;;8.70;;
76063;SDS011;64762;52.006;8.424;2024-03-07T00:59:32;21.63;;;8.55;;
76063;SDS011;64762;52.006;8.424;2024-03-07T01:01:58;24.23;;;9.43;;
76063;SDS011;64762;52.006;8.424;2024-03-07T01:04:24;21.88;;;8.73;;
76063;SDS011;64762;52.006;8.424;2024-03-07T01:06:51;17.13;;;7.93;;
76063;SDS011;64762;52.006;8.424;2024-03-07T01:09:17;20.07;;;8.33;;
76063;SDS011;64762;52.006;8.424;2024-03-07T01:11:44;21.13;;;8.90;;
76063;SDS011;64762;52.006;8.424;2024-03-07T01:14:10;17.63;;;8.40;;
76063;SDS011;64762;52.006;8.424;2024-03-07T01:16:35;19.73;;;9.33;;
76063;SDS011;64762;52.006;8.424;2024-03-07T01:19:01;22.73;;;8.50;;
76063;SDS011;64762;52.006;8.424;2024-03-07T01:21:26;19.98;;;9.35;;
76063;SDS011;64762;52.006;8.424;2024-03-07T01:23:51;23.83;;;9.70;;
76063;SDS011;64762;52.006;8.424;2024-03-07T01:26:17;25.27;;;9.87;;
76063;SDS011;64762;52.006;8.424;2024-03-07T01:28:42;27.73;;;9.73;;
76063;SDS011;64762;52.006;8.424;2024-03-07T01:31:07;20.70;;;9.33;;
76063;SDS011;64762;52.006;8.424;2024-03-07T01:33:33;23.50;;;9.37;;
76063;SDS011;64762;52.006;8.424;2024-03-07T01:35:58;22.13;;;8.30;;
76063;SDS011;64762;52.006;8.424;2024-03-07T01:38:23;27.03;;;10.37;;
76063;SDS011;64762;52.006;8.424;2024-03-07T01:40:48;25.30;;;10.13;;
76063;SDS011;64762;52.006;8.424;2024-03-07T01:43:14;20.47;;;9.07;;
76063;SDS011;64762;52.006;8.424;2024-03-07T01:45:40;24.00;;;9.75;;
76063;SDS011;64762;52.006;8.424;2024-03-07T01:48:05;19.07;;;8.70;;
76063;SDS011;64762;52.006;8.424;2024-03-07T01:50:31;20.38;;;9.35;;
76063;SDS011;64762;52.006;8.424;2024-03-07T01:52:57;22.20;;;9.10;;
76063;SDS011;64762;52.006;8.424;2024-03-07T01:55:24;19.70;;;9.10;;
76063;SDS011;64762;52.006;8.424;2024-03-07T01:57:49;25.00;;;11.40;;
76063;SDS011;64762;52.006;8.424;2024-03-07T02:00:15;21.03;;;9.03;;
76063;SDS011;64762;52.006;8.424;2024-03-07T02:02:42;23.70;;;9.82;;
76063;SDS011;64762;52.006;8.424;2024-03-07T02:05:08;21.87;;;9.87;;
76063;SDS011;64762;52.006;8.424;2024-03-07T02:07:33;19.97;;;8.13;;
76063;SDS011;64762;52.006;8.424;2024-03-07T02:10:02;23.57;;;9.90;;
76063;SDS011;64762;52.006;8.424;2024-03-07T02:12:28;23.48;;;10.35;;
76063;SDS011;64762;52.006;8.424;2024-03-07T02:14:55;20.35;;;9.40;;
76063;SDS011;64762;52.006;8.424;2024-03-07T02:17:22;22.25;;;10.07;;
76063;SDS011;64762;52.006;8.424;2024-03-07T02:19:47;19.08;;;8.80;;
76063;SDS011;64762;52.006;8.424;2024-03-07T02:22:13;20.10;;;8.73;;
76063;SDS011;64762;52.006;8.424;2024-03-07T02:24:38;22.47;;;9.43;;
76063;SDS011;64762;52.006;8.424;2024-03-07T02:27:03;20.50;;;8.67;;
76063;SDS011;64762;52.006;8.424;2024-03-07T02:29:29;22.93;;;9.10;;
76063;SDS011;64762;52.006;8.424;2024-03-07T02:31:55;20.42;;;8.18;;
76063;SDS011;64762;52.006;8.424;2024-03-07T02:34:21;26.65;;;8.82;;
76063;SDS011;64762;52.006;8.424;2024-03-07T02:36:47;21.90;;;9.23;;
76063;SDS011;64762;52.006;8.424;2024-03-07T02:39:12;22.85;;;9.73;;
76063;SDS011;64762;52.006;8.424;2024-03-07T02:41:38;22.77;;;10.23;;
76063;SDS011;64762;52.006;8.424;2024-03-07T02:44:03;24.40;;;9.37;;
76063;SDS011;64762;52.006;8.424;2024-03-07T02:46:29;25.38;;;9.88;;
76063;SDS011;64762;52.006;8.424;2024-03-07T02:48:54;22.23;;;9.68;;
76063;SDS011;64762;52.006;8.424;2024-03-07T02:51:19;21.60;;;10.30;;
76063;SDS011;64762;52.006;8.424;2024-03-07T02:53:45;23.50;;;9.20;;
76063;SDS011;64762;52.006;8.424;2024-03-07T02:56:10;24.37;;;10.63;;
76063;SDS011;64762;52.006;8.424;2024-03-07T02:58:36;20.50;;;9.93;;
76063;SDS011;64762;52.006;8.424;2024-03-07T03:01:01;20.27;;;9.77;;
76063;SDS011;64762;52.006;8.424;2024-03-07T03:03:30;25.20;;;10.43;;
76063;SDS011;64762;52.006;8.424;2024-03-07T03:05:58;26.40;;;10.35;;
76063;SDS011;64762;52.006;8.424;2024-03-07T03:08:27;23.58;;;10.05;;
76063;SDS011;64762;52.006;8.424;2024-03-07T03:10:55;27.23;;;9.50;;
76063;SDS011;64762;52.006;8.424;2024-03-07T03:13:21;26.42;;;11.13;;
76063;SDS011;64762;52.006;8.424;2024-03-07T03:15:47;22.05;;;10.38;;
76063;SDS011;64762;52.006;8.424;2024-03-07T03:18:12;28.20;;;12.03;;
76063;SDS011;64762;52.006;8.424;2024-03-07T03:20:38;27.60;;;12.13;;
76063;SDS011;64762;52.006;8.424;2024-03-07T03:23:06;29.00;;;11.88;;
76063;SDS011;64762;52.006;8.424;2024-03-07T03:25:36;24.80;;;10.02;;
76063;SDS011;64762;52.006;8.424;2024-03-07T03:28:03;25.15;;;10.50;;
76063;SDS011;64762;52.006;8.424;2024-03-07T03:30:29;25.15;;;10.90;;
76063;SDS011;64762;52.006;8.424;2024-03-07T03:32:54;24.00;;;10.73;;
76063;SDS011;64762;52.006;8.424;2024-03-07T03:35:20;24.98;;;10.10;;
76063;SDS011;64762;52.006;8.424;2024-03-07T03:37:45;22.83;;;9.80;;
76063;SDS011;64762;52.006;8.424;2024-03-07T03:40:11;27.83;;;11.03;;
76063;SDS011;64762;52.006;8.424;2024-03-07T03:42:38;24.23;;;10.60;;
76063;SDS011;64762;52.006;8.424;2024-03-07T03:45:04;22.23;;;9.75;;
76063;SDS011;64762;52.006;8.424;2024-03-07T03:47:34;24.65;;;10.45;;
76063;SDS011;64762;52.006;8.424;2024-03-07T03:50:05;23.25;;;10.40;;
76063;SDS011;64762;52.006;8.424;2024-03-07T03:52:31;24.67;;;11.00;;
76063;SDS011;64762;52.006;8.424;2024-03-07T03:54:57;22.27;;;9.50;;
76063;SDS011;64762;52.006;8.424;2024-03-07T03:57:25;27.30;;;11.50;;
76063;SDS011;64762;52.006;8.424;2024-03-07T03:59:51;28.45;;;12.05;;
76063;SDS011;64762;52.006;8.424;2024-03-07T04:02:17;27.67;;;12.20;;
76063;SDS011;64762;52.006;8.424;2024-03-07T04:04:42;25.37;;;11.43;;
76063;SDS011;64762;52.006;8.424;2024-03-07T04:07:09;21.30;;;10.63;;
76063;SDS011;64762;52.006;8.424;2024-03-07T04:09:34;27.10;;;9.48;;
76063;SDS011;64762;52.006;8.424;2024-03-07T04:12:00;26.17;;;11.37;;
76063;SDS011;64762;52.006;8.424;2024-03-07T04:14:25;27.27;;;11.33;;
76063;SDS011;64762;52.006;8.424;2024-03-07T04:16:51;26.10;;;11.13;;
76063;SDS011;64762;52.006;8.424;2024-03-07T04:19:16;26.23;;;12.10;;
76063;SDS011;64762;52.006;8.424;2024-03-07T04:21:45;22.60;;;10.13;;
76063;SDS011;64762;52.006;8.424;2024-03-07T04:24:10;26.00;;;10.47;;
76063;SDS011;64762;52.006;8.424;2024-03-07T04:26:37;25.10;;;10.52;;
76063;SDS011;64762;52.006;8.424;2024-03-07T04:29:02;25.97;;;10.40;;
76063;SDS011;64762;52.006;8.424;2024-03-07T04:31:27;27.27;;;11.93;;
76063;SDS011;64762;52.006;8.424;2024-03-07T04:33:53;26.37;;;11.50;;
76063;SDS011;64762;52.006;8.424;2024-03-07T04:36:18;27.57;;;10.90;;
76063;SDS011;64762;52.006;8.424;2024-03-07T04:38:43;22.53;;;9.77;;
76063;SDS011;64762;52.006;8.424;2024-03-07T04:41:13;26.38;;;10.85;;
76063;SDS011;64762;52.006;8.424;2024-03-07T04:43:40;29.20;;;11.32;;
76063;SDS011;64762;52.006;8.424;2024-03-07T04:46:05;24.07;;;10.33;;
76063;SDS011;64762;52.006;8.424;2024-03-07T04:48:31;25.20;;;10.85;;
76063;SDS011;64762;52.006;8.424;2024-03-07T04:50:57;27.63;;;11.33;;
76063;SDS011;64762;52.006;8.424;2024-03-07T04:53:23;27.90;;;11.80;;
76063;SDS011;64762;52.006;8.424;2024-03-07T04:55:48;23.57;;;10.00;;
76063;SDS011;64762;52.006;8.424;2024-03-07T04:58:13;28.87;;;12.70;;
76063;SDS011;64762;52.006;8.424;2024-03-07T05:00:39;27.27;;;11.63;;
76063;SDS011;64762;52.006;8.424;2024-03-07T05:03:04;31.20;;;12.80;;
76063;SDS011;64762;52.006;8.424;2024-03-07T05:05:29;26.30;;;11.23;;
76063;SDS011;64762;52.006;8.424;2024-03-07T05:07:55;21.63;;;9.57;;
76063;SDS011;64762;52.006;8.424;2024-03-07T05:10:23;32.75;;;12.10;;
76063;SDS011;64762;52.006;8.424;2024-03-07T05:12:49;25.00;;;11.20;;
76063;SDS011;64762;52.006;8.424;2024-03-07T05:15:14;18.10;;;7.83;;
76063;SDS011;64762;52.006;8.424;2024-03-07T05:17:41;20.33;;;9.45;;
76063;SDS011;64762;52.006;8.424;2024-03-07T05:20:07;26.80;;;10.52;;
76063;SDS011;64762;52.006;8.424;2024-03-07T05:22:38;28.08;;;10.73;;
76063;SDS011;64762;52.006;8.424;2024-03-07T05:25:09;24.92;;;10.90;;
76063;SDS011;64762;52.006;8.424;2024-03-07T05:27:34;23.00;;;9.90;;
76063;SDS011;64762;52.006;8.424;2024-03-07T05:30:01;25.02;;;10.63;;
76063;SDS011;64762;52.006;8.424;2024-03-07T05:32:28;18.30;;;6.70;;
76063;SDS011;64762;52.006;8.424;2024-03-07T05:34:53;26.77;;;9.93;;
76063;SDS011;64762;52.006;8.424;2024-03-07T05:37:19;24.48;;;9.65;;
76063;SDS011;64762;52.006;8.424;2024-03-07T05:39:47;25.48;;;11.70;;
76063;SDS011;64762;52.006;8.424;2024-03-07T05:42:12;19.42;;;8.38;;
76063;SDS011;64762;52.006;8.424;2024-03-07T05:44:39;21.02;;;9.68;;
76063;SDS011;64762;52.006;8.424;2024-03-07T05:47:06;26.80;;;11.63;;
76063;SDS011;64762;52.006;8.424;2024-03-07T05:49:32;26.52;;;11.18;;
76063;SDS011;64762;52.006;8.424;2024-03-07T05:51:57;29.43;;;10.73;;
76063;SDS011;64762;52.006;8.424;2024-03-07T05:54:23;22.17;;;8.97;;
76063;SDS011;64762;52.006;8.424;2024-03-07T05:56:48;24.00;;;9.87;;
76063;SDS011;64762;52.006;8.424;2024-03-07T05:59:15;27.75;;;10.68;;
76063;SDS011;64762;52.006;8.424;2024-03-07T06:01:42;25.75;;;11.02;;
76063;SDS011;64762;52.006;8.424;2024-03-07T06:04:07;22.77;;;9.73;;
76063;SDS011;64762;52.006;8.424;2024-03-07T06:06:36;26.13;;;9.57;;
76063;SDS011;64762;52.006;8.424;2024-03-07T06:09:02;24.27;;;10.52;;
76063;SDS011;64762;52.006;8.424;2024-03-07T06:11:39;22.73;;;9.98;;
76063;SDS011;64762;52.006;8.424;2024-03-07T06:14:08;26.42;;;11.35;;
76063;SDS011;64762;52.006;8.424;2024-03-07T06:16:37;24.17;;;10.48;;
76063;SDS011;64762;52.006;8.424;2024-03-07T06:19:03;24.42;;;10.40;;
76063;SDS011;64762;52.006;8.424;2024-03-07T06:21:29;28.08;;;11.05;;
76063;SDS011;64762;52.006;8.424;2024-03-07T06:23:58;27.80;;;11.68;;
76063;SDS011;64762;52.006;8.424;2024-03-07T06:26:28;25.42;;;10.50;;
76063;SDS011;64762;52.006;8.424;2024-03-07T06:29:07;26.63;;;10.80;;
76063;SDS011;64762;52.006;8.424;2024-03-07T06:31:38;27.00;;;11.95;;
76063;SDS011;64762;52.006;8.424;2024-03-07T06:34:04;33.28;;;13.25;;
76063;SDS011;64762;52.006;8.424;2024-03-07T06:36:29;26.23;;;11.52;;
76063;SDS011;64762;52.006;8.424;2024-03-07T06:38:55;26.70;;;11.10;;
76063;SDS011;64762;52.006;8.424;2024-03-07T06:41:20;25.52;;;10.77;;
76063;SDS011;64762;52.006;8.424;2024-03-07T06:43:46;28.52;;;11.73;;
76063;SDS011;64762;52.006;8.424;2024-03-07T06:46:11;27.67;;;11.00;;
76063;SDS011;64762;52.006;8.424;2024-03-07T06:48:37;25.98;;;11.75;;
76063;SDS011;64762;52.006;8.424;2024-03-07T06:51:05;27.58;;;10.85;;
76063;SDS011;64762;52.006;8.424;2024-03-07T06:53:30;27.88;;;11.13;;
76063;SDS011;64762;52.006;8.424;2024-03-07T06:55:56;26.57;;;11.50;;
76063;SDS011;64762;52.006;8.424;2024-03-07T06:58:21;28.83;;;11.13;;
76063;SDS011;64762;52.006;8.424;2024-03-07T07:00:47;28.80;;;10.63;;
76063;SDS011;64762;52.006;8.424;2024-03-07T07:03:13;29.60;;;11.27;;
76063;SDS011;64762;52.006;8.424;2024-03-07T07:05:39;27.38;;;11.98;;
76063;SDS011;64762;52.006;8.424;2024-03-07T07:08:05;23.58;;;10.80;;
76063;SDS011;64762;52.006;8.424;2024-03-07T07:10:31;27.27;;;11.18;;
76063;SDS011;64762;52.006;8.424;2024-03-07T07:12:57;26.65;;;10.82;;
76063;SDS011;64762;52.006;8.424;2024-03-07T07:15:22;27.73;;;11.13;;
76063;SDS011;64762;52.006;8.424;2024-03-07T07:17:48;23.27;;;10.32;;
76063;SDS011;64762;52.006;8.424;2024-03-07T07:20:15;24.75;;;10.52;;
76063;SDS011;64762;52.006;8.424;2024-03-07T07:22:44;27.33;;;11.48;;
76063;SDS011;64762;52.006;8.424;2024-03-07T07:27:45;26.33;;;11.23;;
76063;SDS011;64762;52.006;8.424;2024-03-07T07:30:12;26.08;;;11.48;;
76063;SDS011;64762;52.006;8.424;2024-03-07T07:32:39;25.00;;;10.93;;
76063;SDS011;64762;52.006;8.424;2024-03-07T07:35:05;24.13;;;11.95;;
76063;SDS011;64762;52.006;8.424;2024-03-07T07:37:40;23.25;;;10.13;;
76063;SDS011;64762;52.006;8.424;2024-03-07T07:40:16;25.73;;;11.02;;
76063;SDS011;64762;52.006;8.424;2024-03-07T07:42:46;28.65;;;11.20;;
76063;SDS011;64762;52.006;8.424;2024-03-07T07:45:14;23.92;;;10.18;;
76063;SDS011;64762;52.006;8.424;2024-03-07T07:47:40;25.80;;;11.00;;
76063;SDS011;64762;52.006;8.424;2024-03-07T07:50:10;25.30;;;11.18;;
76063;SDS011;64762;52.006;8.424;2024-03-07T07:52:45;27.67;;;11.20;;
76063;SDS011;64762;52.006;8.424;2024-03-07T07:55:18;25.73;;;9.95;;
76063;SDS011;64762;52.006;8.424;2024-03-07T07:57:44;22.33;;;11.05;;
76063;SDS011;64762;52.006;8.424;2024-03-07T08:00:14;24.80;;;10.88;;
76063;SDS011;64762;52.006;8.424;2024-03-07T08:02:47;26.80;;;11.27;;
76063;SDS011;64762;52.006;8.424;2024-03-07T08:05:33;28.90;;;10.55;;
76063;SDS011;64762;52.006;8.424;2024-03-07T08:10:25;24.77;;;10.40;;
76063;SDS011;64762;52.006;8.424;2024-03-07T08:12:55;22.88;;;10.40;;
76063;SDS011;64762;52.006;8.424;2024-03-07T08:15:25;25.90;;;10.85;;
76063;SDS011;64762;52.006;8.424;2024-03-07T08:17:51;19.60;;;9.57;;
76063;SDS011;64762;52.006;8.424;2024-03-07T08:20:17;25.02;;;10.88;;
76063;SDS011;64762;52.006;8.424;2024-03-07T08:22:45;26.92;;;10.50;;
76063;SDS011;64762;52.006;8.424;2024-03-07T08:25:13;27.17;;;11.68;;
76063;SDS011;64762;52.006;8.424;2024-03-07T08:27:40;27.42;;;11.95;;
76063;SDS011;64762;52.006;8.424;2024-03-07T08:30:07;24.27;;;10.27;;
76063;SDS011;64762;52.006;8.424;2024-03-07T08:32:38;26.15;;;10.00;;
76063;SDS011;64762;52.006;8.424;2024-03-07T08:35:14;23.10;;;9.27;;
76063;SDS011;64762;52.006;8.424;2024-03-07T08:37:42;25.25;;;10.18;;
76063;SDS011;64762;52.006;8.424;2024-03-07T08:40:14;24.02;;;11.20;;
76063;SDS011;64762;52.006;8.424;2024-03-07T08:42:44;28.02;;;12.10;;
76063;SDS011;64762;52.006;8.424;2024-03-07T08:45:19;36.85;;;11.27;;
76063;SDS011;64762;52.006;8.424;2024-03-07T08:47:45;28.33;;;11.00;;
76063;SDS011;64762;52.006;8.424;2024-03-07T08:50:12;24.40;;;11.38;;
76063;SDS011;64762;52.006;8.424;2024-03-07T08:52:38;25.10;;;11.45;;
76063;SDS011;64762;52.006;8.424;2024-03-07T08:55:15;27.27;;;11.43;;
76063;SDS011;64762;52.006;8.424;2024-03-07T08:57:41;29.98;;;10.57;;
76063;SDS011;64762;52.006;8.424;2024-03-07T09:00:08;24.50;;;10.88;;
76063;SDS011;64762;52.006;8.424;2024-03-07T09:02:36;29.70;;;11.57;;
76063;SDS011;64762;52.006;8.424;2024-03-07T09:05:03;30.90;;;11.27;;
76063;SDS011;64762;52.006;8.424;2024-03-07T09:07:29;24.30;;;9.27;;
76063;SDS011;64762;52.006;8.424;2024-03-07T09:09:54;32.50;;;11.70;;
76063;SDS011;64762;52.006;8.424;2024-03-07T09:12:20;23.98;;;9.43;;
76063;SDS011;64762;52.006;8.424;2024-03-07T09:14:45;24.87;;;11.10;;
76063;SDS011;64762;52.006;8.424;2024-03-07T09:17:10;29.55;;;12.13;;
76063;SDS011;64762;52.006;8.424;2024-03-07T09:19:37;31.35;;;13.80;;
76063;SDS011;64762;52.006;8.424;2024-03-07T09:22:02;30.95;;;11.50;;
76063;SDS011;64762;52.006;8.424;2024-03-07T09:24:28;31.10;;;13.45;;
76063;SDS011;64762;52.006;8.424;2024-03-07T09:26:54;30.75;;;12.20;;
76063;SDS011;64762;52.006;8.424;2024-03-07T09:29:21;34.63;;;13.15;;
76063;SDS011;64762;52.006;8.424;2024-03-07T09:31:50;31.63;;;12.50;;
76063;SDS011;64762;52.006;8.424;2024-03-07T09:34:17;34.63;;;13.05;;
76063;SDS011;64762;52.006;8.424;2024-03-07T09:36:43;29.05;;;12.05;;
76063;SDS011;64762;52.006;8.424;2024-03-07T09:39:10;29.83;;;11.07;;
76063;SDS011;64762;52.006;8.424;2024-03-07T09:41:37;31.90;;;12.18;;
76063;SDS011;64762;52.006;8.424;2024-03-07T09:44:04;26.92;;;10.55;;
76063;SDS011;64762;52.006;8.424;2024-03-07T09:46:31;28.35;;;10.90;;
76063;SDS011;64762;52.006;8.424;2024-03-07T09:48:56;26.70;;;11.20;;
76063;SDS011;64762;52.006;8.424;2024-03-07T09:51:23;27.83;;;12.48;;
76063;SDS011;64762;52.006;8.424;2024-03-07T09:53:49;28.48;;;11.85;;
76063;SDS011;64762;52.006;8.424;2024-03-07T09:56:22;28.20;;;11.45;;
76063;SDS011;64762;52.006;8.424;2024-03-07T09:58:51;28.20;;;10.57;;
76063;SDS011;64762;52.006;8.424;2024-03-07T10:01:18;29.88;;;11.18;;
76063;SDS011;64762;52.006;8.424;2024-03-07T10:03:45;19.58;;;9.18;;
76063;SDS011;64762;52.006;8.424;2024-03-07T10:06:12;27.65;;;9.73;;
76063;SDS011;64762;52.006;8.424;2024-03-07T10:08:38;28.25;;;10.48;;
76063;SDS011;64762;52.006;8.424;2024-03-07T10:11:03;25.90;;;11.15;;
76063;SDS011;64762;52.006;8.424;2024-03-07T10:13:28;26.33;;;10.00;;
76063;SDS011;64762;52.006;8.424;2024-03-07T10:15:56;22.20;;;9.13;;
76063;SDS011;64762;52.006;8.424;2024-03-07T10:18:24;23.92;;;9.93;;
76063;SDS011;64762;52.006;8.424;2024-03-07T10:20:53;28.98;;;11.57;;
76063;SDS011;64762;52.006;8.424;2024-03-07T10:23:19;26.17;;;9.68;;
76063;SDS011;64762;52.006;8.424;2024-03-07T10:25:46;22.08;;;9.10;;
76063;SDS011;64762;52.006;8.424;2024-03-07T10:28:12;25.02;;;9.43;;
76063;SDS011;64762;52.006;8.424;2024-03-07T10:30:44;22.77;;;8.53;;
76063;SDS011;64762;52.006;8.424;2024-03-07T10:33:10;26.83;;;9.32;;
76063;SDS011;64762;52.006;8.424;2024-03-07T10:35:37;21.65;;;9.45;;
76063;SDS011;64762;52.006;8.424;2024-03-07T10:38:03;30.13;;;12.45;;
76063;SDS011;64762;52.006;8.424;2024-03-07T10:40:32;28.67;;;9.50;;
76063;SDS011;64762;52.006;8.424;2024-03-07T10:42:58;26.02;;;10.30;;
76063;SDS011;64762;52.006;8.424;2024-03-07T10:45:28;31.48;;;11.85;;
76063;SDS011;64762;52.006;8.424;2024-03-07T10:47:54;35.75;;;11.73;;
76063;SDS011;64762;52.006;8.424;2024-03-07T10:52:54;32.58;;;10.65;;
76063;SDS011;64762;52.006;8.424;2024-03-07T10:55:37;32.13;;;11.77;;
76063;SDS011;64762;52.006;8.424;2024-03-07T10:58:14;38.58;;;13.35;;
76063;SDS011;64762;52.006;8.424;2024-03-07T11:00:49;35.30;;;10.98;;
76063;SDS011;64762;52.006;8.424;2024-03-07T11:03:14;36.90;;;11.93;;
76063;SDS011;64762;52.006;8.424;2024-03-07T11:05:40;32.97;;;12.43;;
76063;SDS011;64762;52.006;8.424;2024-03-07T11:08:08;32.88;;;12.43;;
76063;SDS011;64762;52.006;8.424;2024-03-07T11:10:37;32.95;;;12.70;;
76063;SDS011;64762;52.006;8.424;2024-03-07T11:13:03;27.88;;;11.38;;
76063;SDS011;64762;52.006;8.424;2024-03-07T11:15:29;35.60;;;12.10;;
76063;SDS011;64762;52.006;8.424;2024-03-07T11:17:57;29.15;;;10.45;;
76063;SDS011;64762;52.006;8.424;2024-03-07T11:20:24;33.90;;;12.90;;
76063;SDS011;64762;52.006;8.424;2024-03-07T11:22:59;34.17;;;11.20;;
76063;SDS011;64762;52.006;8.424;2024-03-07T11:25:24;28.27;;;10.03;;
76063;SDS011;64762;52.006;8.424;2024-03-07T11:27:52;37.08;;;12.70;;
76063;SDS011;64762;52.006;8.424;2024-03-07T11:30:20;33.97;;;12.00;;
76063;SDS011;64762;52.006;8.424;2024-03-07T11:32:50;31.55;;;10.93;;
76063;SDS011;64762;52.006;8.424;2024-03-07T11:35:19;32.13;;;11.18;;
76063;SDS011;64762;52.006;8.424;2024-03-07T11:37:55;34.25;;;10.80;;
76063;SDS011;64762;52.006;8.424;2024-03-07T11:42:50;37.83;;;12.00;;
76063;SDS011;64762;52.006;8.424;2024-03-07T11:45:17;30.88;;;10.00;;
76063;SDS011;64762;52.006;8.424;2024-03-07T11:48:03;34.55;;;12.80;;
76063;SDS011;64762;52.006;8.424;2024-03-07T11:50:33;29.42;;;10.55;;
76063;SDS011;64762;52.006;8.424;2024-03-07T11:53:02;32.88;;;12.32;;
76063;SDS011;64762;52.006;8.424;2024-03-07T11:55:30;22.48;;;8.65;;
76063;SDS011;64762;52.006;8.424;2024-03-07T11:58:17;30.27;;;10.88;;
76063;SDS011;64762;52.006;8.424;2024-03-07T12:00:46;26.15;;;10.43;;
76063;SDS011;64762;52.006;8.424;2024-03-07T12:03:12;26.67;;;9.32;;
76063;SDS011;64762;52.006;8.424;2024-03-07T12:05:47;28.75;;;10.02;;
76063;SDS011;64762;52.006;8.424;2024-03-07T12:08:13;34.67;;;11.70;;
76063;SDS011;64762;52.006;8.424;2024-03-07T12:10:39;36.97;;;12.00;;
76063;SDS011;64762;52.006;8.424;2024-03-07T12:13:08;35.65;;;12.02;;
76063;SDS011;64762;52.006;8.424;2024-03-07T12:15:40;33.40;;;11.35;;
76063;SDS011;64762;52.006;8.424;2024-03-07T12:18:07;26.77;;;9.73;;
76063;SDS011;64762;52.006;8.424;2024-03-07T12:20:34;26.75;;;10.13;;
76063;SDS011;64762;52.006;8.424;2024-03-07T12:23:03;32.97;;;10.60;;
76063;SDS011;64762;52.006;8.424;2024-03-07T12:25:30;28.77;;;10.23;;
76063;SDS011;64762;52.006;8.424;2024-03-07T12:28:04;28.70;;;9.70;;
76063;SDS011;64762;52.006;8.424;2024-03-07T12:30:31;30.30;;;10.98;;
76063;SDS011;64762;52.006;8.424;2024-03-07T12:32:58;30.67;;;10.63;;
76063;SDS011;64762;52.006;8.424;2024-03-07T12:35:24;31.60;;;11.27;;
76063;SDS011;64762;52.006;8.424;2024-03-07T12:37:50;30.35;;;11.63;;
76063;SDS011;64762;52.006;8.424;2024-03-07T12:40:15;32.50;;;10.77;;
76063;SDS011;64762;52.006;8.424;2024-03-07T12:42:46;29.58;;;10.75;;
76063;SDS011;64762;52.006;8.424;2024-03-07T12:45:12;30.50;;;11.93;;
76063;SDS011;64762;52.006;8.424;2024-03-07T12:47:42;29.92;;;12.38;;
76063;SDS011;64762;52.006;8.424;2024-03-07T12:50:08;34.45;;;11.40;;
76063;SDS011;64762;52.006;8.424;2024-03-07T12:52:34;34.20;;;11.88;;
76063;SDS011;64762;52.006;8.424;2024-03-07T12:54:59;32.97;;;10.37;;
76063;SDS011;64762;52.006;8.424;2024-03-07T12:57:24;30.30;;;11.30;;
76063;SDS011;64762;52.006;8.424;2024-03-07T12:59:49;27.70;;;10.27;;
76063;SDS011;64762;52.006;8.424;2024-03-07T13:02:15;36.42;;;12.43;;
76063;SDS011;64762;52.006;8.424;2024-03-07T13:04:41;32.38;;;11.75;;
76063;SDS011;64762;52.006;8.424;2024-03-07T13:07:07;32.65;;;11.23;;
76063;SDS011;64762;52.006;8.424;2024-03-07T13:09:33;32.40;;;12.13;;
76063;SDS011;64762;52.006;8.424;2024-03-07T13:11:59;28.17;;;10.35;;
76063;SDS011;64762;52.006;8.424;2024-03-07T13:14:29;32.63;;;10.07;;
76063;SDS011;64762;52.006;8.424;2024-03-07T13:16:58;27.15;;;10.77;;
76063;SDS011;64762;52.006;8.424;2024-03-07T13:19:27;34.88;;;12.45;;
76063;SDS011;64762;52.006;8.424;2024-03-07T13:21:52;42.03;;;13.63;;
76063;SDS011;64762;52.006;8.424;2024-03-07T13:24:18;33.80;;;12.30;;
76063;SDS011;64762;52.006;8.424;2024-03-07T13:26:46;35.90;;;13.00;;
76063;SDS011;64762;52.006;8.424;2024-03-07T13:29:13;38.13;;;11.90;;
76063;SDS011;64762;52.006;8.424;2024-03-07T13:31:39;31.48;;;12.10;;
76063;SDS011;64762;52.006;8.424;2024-03-07T13:34:07;34.25;;;12.60;;
76063;SDS011;64762;52.006;8.424;2024-03-07T13:36:39;33.03;;;12.07;;
76063;SDS011;64762;52.006;8.424;2024-03-07T13:39:06;35.13;;;12.68;;
76063;SDS011;64762;52.006;8.424;2024-03-07T13:41:39;38.78;;;12.77;;
76063;SDS011;64762;52.006;8.424;2024-03-07T13:44:09;30.58;;;11.57;;
76063;SDS011;64762;52.006;8.424;2024-03-07T13:46:34;33.35;;;11.70;;
76063;SDS011;64762;52.006;8.424;2024-03-07T13:49:00;32.92;;;12.00;;
76063;SDS011;64762;52.006;8.424;2024-03-07T13:51:37;33.08;;;12.43;;
76063;SDS011;64762;52.006;8.424;2024-03-07T13:54:04;30.88;;;11.23;;
76063;SDS011;64762;52.006;8.424;2024-03-07T13:56:50;29.67;;;10.77;;
76063;SDS011;64762;52.006;8.424;2024-03-07T13:59:36;33.85;;;11.73;;
76063;SDS011;64762;52.006;8.424;2024-03-07T14:02:11;26.52;;;9.43;;
76063;SDS011;64762;52.006;8.424;2024-03-07T14:07:47;32.67;;;10.70;;
76063;SDS011;64762;52.006;8.424;2024-03-07T14:31:01;36.90;;;10.98;;
76063;SDS011;64762;52.006;8.424;2024-03-07T14:33:46;35.72;;;12.27;;
76063;SDS011;64762;52.006;8.424;2024-03-07T14:36:16;34.58;;;11.60;;
76063;SDS011;64762;52.006;8.424;2024-03-07T14:38:52;35.25;;;11.90;;
76063;SDS011;64762;52.006;8.424;2024-03-07T14:41:19;29.83;;;11.55;;
76063;SDS011;64762;52.006;8.424;2024-03-07T14:43:47;33.83;;;12.27;;
76063;SDS011;64762;52.006;8.424;2024-03-07T14:46:14;30.80;;;12.80;;
76063;SDS011;64762;52.006;8.424;2024-03-07T14:48:39;34.40;;;11.20;;
76063;SDS011;64762;52.006;8.424;2024-03-07T14:51:06;36.97;;;11.07;;
76063;SDS011;64762;52.006;8.424;2024-03-07T14:53:33;34.83;;;12.15;;
76063;SDS011;64762;52.006;8.424;2024-03-07T14:55:58;33.73;;;10.70;;
76063;SDS011;64762;52.006;8.424;2024-03-07T14:58:24;31.95;;;10.27;;
76063;SDS011;64762;52.006;8.424;2024-03-07T15:00:50;31.98;;;11.38;;